Time;durP1;ratioP1;P1;durP2;ratioP2;P2;SDS_P1;SDS_P2;PMS_P1;PMS_P2;Temp;Humidity;BMP_temperature;BMP_pressure;BME280_temperature;BME280_humidity;BME280_pressure;Samples;Min_cycle;Max_cycle;Signal;HPM_P1;HPM_P2
2021/07/20 00:01:33;;;;;;;15.43;8.23;;;;;;;;;;4996549;28;20032;-68
2021/07/20 00:03:59;;;;;;;13.38;7.03;;;;;;;;;;4991211;28;20030;-68
2021/07/20 00:06:25;;;;;;;14.32;7.95;;;;;;;;;;4992216;28;20371;-68
2021/07/20 00:08:51;;;;;;;16.10;8.20;;;;;;;;;;4990937;28;20506;-68
2021/07/20 00:11:17;;;;;;;11.95;7.35;;;;;;;;;;4991178;28;20488;-68
2021/07/20 00:13:43;;;;;;;15.30;8.00;;;;;;;;;;4991434;28;20030;-68
2021/07/20 00:16:09;;;;;;;12.48;7.32;;;;;;;;;;5003136;28;20382;-68
2021/07/20 00:18:36;;;;;;;15.88;8.90;;;;;;;;;;5009035;28;20029;-68
2021/07/20 00:21:05;;;;;;;16.67;8.52;;;;;;;;;;4991854;28;20102;-68
2021/07/20 00:23:32;;;;;;;17.27;9.43;;;;;;;;;;4993936;28;20284;-68
2021/07/20 00:25:58;;;;;;;16.60;8.90;;;;;;;;;;4998054;28;20037;-68
2021/07/20 00:28:24;;;;;;;16.65;8.77;;;;;;;;;;5009633;28;20030;-68
2021/07/20 00:30:50;;;;;;;17.20;8.88;;;;;;;;;;5004046;28;20182;-68
2021/07/20 00:33:16;;;;;;;12.95;7.25;;;;;;;;;;4991090;28;20026;-68
2021/07/20 00:35:42;;;;;;;15.77;9.38;;;;;;;;;;4990883;28;20396;-68
2021/07/20 00:38:08;;;;;;;15.75;8.18;;;;;;;;;;4991265;28;20097;-68
2021/07/20 00:40:34;;;;;;;18.30;8.75;;;;;;;;;;4990483;28;20484;-68
2021/07/20 00:43:01;;;;;;;16.33;8.73;;;;;;;;;;4997528;28;20517;-68
2021/07/20 00:45:27;;;;;;;14.20;8.15;;;;;;;;;;4997138;28;20026;-68
2021/07/20 00:47:53;;;;;;;17.85;8.90;;;;;;;;;;4996403;28;20026;-68
2021/07/20 00:50:24;;;;;;;17.13;9.18;;;;;;;;;;5006653;28;20026;-70
2021/07/20 00:52:50;;;;;;;16.67;9.25;;;;;;;;;;4994761;28;20106;-68
2021/07/20 00:55:17;;;;;;;17.80;9.48;;;;;;;;;;4994765;28;20177;-68
2021/07/20 00:57:43;;;;;;;19.38;9.85;;;;;;;;;;4999291;28;20030;-68
2021/07/20 01:00:11;;;;;;;18.77;10.05;;;;;;;;;;4999162;28;20475;-68
2021/07/20 01:02:37;;;;;;;21.52;11.43;;;;;;;;;;4993044;28;20015;-69
2021/07/20 01:05:14;;;;;;;17.63;10.60;;;;;;;;;;4999543;28;20026;-68
2021/07/20 01:07:42;;;;;;;20.95;10.30;;;;;;;;;;5000557;28;20031;-68
2021/07/20 01:10:08;;;;;;;20.85;10.85;;;;;;;;;;4993876;28;20030;-68
2021/07/20 01:12:39;;;;;;;17.70;10.15;;;;;;;;;;4994627;28;20031;-68
2021/07/20 01:15:06;;;;;;;20.95;10.45;;;;;;;;;;4994101;28;20444;-68
2021/07/20 01:17:32;;;;;;;20.35;9.93;;;;;;;;;;4993897;28;20056;-68
2021/07/20 01:19:58;;;;;;;16.17;9.38;;;;;;;;;;4999908;28;20089;-68
2021/07/20 01:22:29;;;;;;;20.08;10.57;;;;;;;;;;4991467;28;20041;-69
2021/07/20 01:24:55;;;;;;;20.20;10.75;;;;;;;;;;4992547;28;20019;-69
2021/07/20 01:27:21;;;;;;;20.70;11.00;;;;;;;;;;4990771;28;20062;-68
2021/07/20 01:29:48;;;;;;;19.00;10.27;;;;;;;;;;4988006;28;20443;-69
2021/07/20 01:32:15;;;;;;;21.67;11.55;;;;;;;;;;4998035;28;20022;-68
2021/07/20 01:34:41;;;;;;;20.83;10.70;;;;;;;;;;4998846;28;20041;-69
2021/07/20 01:37:08;;;;;;;20.35;10.38;;;;;;;;;;5019589;28;20026;-69
2021/07/20 01:39:35;;;;;;;22.35;11.05;;;;;;;;;;5013149;28;20030;-70
2021/07/20 01:42:01;;;;;;;17.05;10.20;;;;;;;;;;5010098;28;20022;-69
2021/07/20 01:44:28;;;;;;;24.55;11.80;;;;;;;;;;4993194;28;20018;-69
2021/07/20 01:46:54;;;;;;;23.23;10.40;;;;;;;;;;5001880;28;20102;-68
2021/07/20 01:49:21;;;;;;;20.95;11.85;;;;;;;;;;4993547;28;20035;-69
2021/07/20 01:51:47;;;;;;;20.60;10.93;;;;;;;;;;4992253;28;20387;-69
2021/07/20 01:54:13;;;;;;;22.38;11.40;;;;;;;;;;4993196;28;20026;-70
2021/07/20 01:56:39;;;;;;;19.05;11.05;;;;;;;;;;4993848;28;20026;-69
2021/07/20 01:59:05;;;;;;;25.40;11.05;;;;;;;;;;4993479;28;20030;-69
2021/07/20 02:01:38;;;;;;;24.15;11.57;;;;;;;;;;5003416;28;20403;-69
2021/07/20 02:09:32;;;;;;;21.58;10.93;;;;;;;;;;4991690;28;20042;-69
2021/07/20 02:11:59;;;;;;;24.48;11.43;;;;;;;;;;4992012;28;20121;-68
2021/07/20 02:14:28;;;;;;;22.92;11.07;;;;;;;;;;4993605;28;20428;-68
2021/07/20 02:16:55;;;;;;;23.42;10.93;;;;;;;;;;5005596;28;20058;-68
2021/07/20 02:19:28;;;;;;;23.30;11.43;;;;;;;;;;4993042;28;20399;-69
2021/07/20 02:21:55;;;;;;;22.13;11.82;;;;;;;;;;4996688;28;20029;-68
2021/07/20 02:24:22;;;;;;;27.58;12.65;;;;;;;;;;5002866;28;20081;-69
2021/07/20 02:26:48;;;;;;;22.48;10.40;;;;;;;;;;4991417;28;20019;-69
2021/07/20 02:29:16;;;;;;;26.48;13.52;;;;;;;;;;4993019;28;20053;-68
2021/07/20 02:31:43;;;;;;;23.52;11.80;;;;;;;;;;4995208;28;20100;-69
2021/07/20 02:34:09;;;;;;;23.13;11.57;;;;;;;;;;4999933;28;20451;-68
2021/07/20 02:36:37;;;;;;;21.67;11.02;;;;;;;;;;4995848;28;20026;-68
2021/07/20 02:39:04;;;;;;;24.10;12.77;;;;;;;;;;4996276;28;20030;-69
2021/07/20 02:41:30;;;;;;;27.90;13.38;;;;;;;;;;4993710;28;20030;-69
2021/07/20 02:43:57;;;;;;;23.20;12.10;;;;;;;;;;4992824;28;20447;-69
2021/07/20 02:46:23;;;;;;;22.42;12.43;;;;;;;;;;4992191;28;20030;-69
2021/07/20 02:48:50;;;;;;;25.65;12.63;;;;;;;;;;4992776;28;20112;-69
2021/07/20 02:51:18;;;;;;;23.73;13.02;;;;;;;;;;4992099;28;20027;-69
2021/07/20 02:53:45;;;;;;;27.15;12.77;;;;;;;;;;4992672;28;20551;-70
2021/07/20 02:56:12;;;;;;;27.25;12.98;;;;;;;;;;5000437;28;20571;-69
2021/07/20 02:58:39;;;;;;;24.98;12.55;;;;;;;;;;4992411;28;20030;-69
2021/07/20 03:01:05;;;;;;;21.73;11.90;;;;;;;;;;4991862;28;20026;-68
2021/07/20 03:03:31;;;;;;;26.58;13.02;;;;;;;;;;4992580;28;20029;-69
2021/07/20 03:05:58;;;;;;;22.85;12.80;;;;;;;;;;4992031;28;20026;-69
2021/07/20 03:08:28;;;;;;;23.30;12.60;;;;;;;;;;4989878;28;20482;-68
2021/07/20 03:10:56;;;;;;;25.65;12.07;;;;;;;;;;4992478;28;20502;-69
2021/07/20 03:13:24;;;;;;;23.10;11.77;;;;;;;;;;4991778;28;20037;-69
2021/07/20 03:15:50;;;;;;;25.85;12.88;;;;;;;;;;4992041;28;20095;-69
2021/07/20 03:18:16;;;;;;;26.67;12.30;;;;;;;;;;4991521;28;20100;-69
2021/07/20 03:20:42;;;;;;;33.30;14.32;;;;;;;;;;4991896;28;20360;-68
2021/07/20 03:23:08;;;;;;;28.60;13.48;;;;;;;;;;4991486;28;20022;-69
2021/07/20 03:25:35;;;;;;;27.10;13.13;;;;;;;;;;4986202;28;20080;-68
2021/07/20 03:28:01;;;;;;;32.65;12.05;;;;;;;;;;4983289;28;20391;-69
2021/07/20 03:30:32;;;;;;;25.15;13.13;;;;;;;;;;5001393;28;20030;-68
2021/07/20 03:32:58;;;;;;;23.40;12.50;;;;;;;;;;5000588;28;20038;-69
2021/07/20 03:35:24;;;;;;;28.33;12.52;;;;;;;;;;4991513;28;20423;-69
2021/07/20 03:37:51;;;;;;;26.63;12.32;;;;;;;;;;4991633;28;20383;-68
2021/07/20 03:40:17;;;;;;;26.13;12.52;;;;;;;;;;4996469;28;20438;-68
2021/07/20 03:42:44;;;;;;;26.33;11.90;;;;;;;;;;4993544;28;20018;-68
2021/07/20 03:45:10;;;;;;;26.33;12.85;;;;;;;;;;4991422;28;20098;-69
2021/07/20 03:47:37;;;;;;;30.50;12.63;;;;;;;;;;4996433;28;20623;-69
2021/07/20 03:50:03;;;;;;;23.48;11.77;;;;;;;;;;4986579;28;20053;-69
2021/07/20 03:52:30;;;;;;;24.05;12.95;;;;;;;;;;4991320;28;20501;-69
2021/07/20 03:54:57;;;;;;;28.13;12.18;;;;;;;;;;4995475;28;20071;-68
2021/07/20 03:57:23;;;;;;;28.45;13.85;;;;;;;;;;4999469;28;20030;-69
2021/07/20 03:59:51;;;;;;;29.42;13.60;;;;;;;;;;4990855;28;20034;-69
2021/07/20 04:02:22;;;;;;;30.38;14.32;;;;;;;;;;4994516;28;20144;-68
2021/07/20 04:04:49;;;;;;;29.08;14.85;;;;;;;;;;4991511;28;20018;-69
2021/07/20 04:07:18;;;;;;;29.65;13.13;;;;;;;;;;5009337;28;20507;-69
2021/07/20 04:09:45;;;;;;;30.33;13.18;;;;;;;;;;5008613;28;20026;-69
2021/07/20 04:12:13;;;;;;;27.15;13.73;;;;;;;;;;5007049;28;20033;-68
2021/07/20 04:14:39;;;;;;;28.40;14.32;;;;;;;;;;4990706;28;20019;-69
2021/07/20 04:17:06;;;;;;;33.00;13.60;;;;;;;;;;4991185;28;20038;-68
2021/07/20 04:19:32;;;;;;;26.50;13.50;;;;;;;;;;4990051;28;20045;-69
2021/07/20 04:21:59;;;;;;;23.65;12.75;;;;;;;;;;4996186;28;20046;-69
2021/07/20 04:24:27;;;;;;;29.08;14.20;;;;;;;;;;4990854;28;20025;-68
2021/07/20 04:26:54;;;;;;;25.63;11.38;;;;;;;;;;4998477;28;20026;-68
2021/07/20 04:29:20;;;;;;;23.83;12.52;;;;;;;;;;4997067;28;20400;-69
2021/07/20 04:31:47;;;;;;;24.27;13.25;;;;;;;;;;4992427;28;20105;-69
2021/07/20 04:34:13;;;;;;;29.17;12.88;;;;;;;;;;4993392;28;20030;-69
2021/07/20 04:36:40;;;;;;;27.85;13.85;;;;;;;;;;4990915;28;20031;-69
2021/07/20 04:39:08;;;;;;;26.85;13.00;;;;;;;;;;4990474;28;20023;-69
2021/07/20 04:41:34;;;;;;;26.63;12.93;;;;;;;;;;4987065;28;20061;-69
2021/07/20 04:44:00;;;;;;;25.17;12.23;;;;;;;;;;4995383;28;20062;-68
2021/07/20 04:46:26;;;;;;;24.90;12.27;;;;;;;;;;4990514;28;20213;-68
2021/07/20 04:48:52;;;;;;;22.58;11.38;;;;;;;;;;4991302;28;20028;-68
2021/07/20 04:51:18;;;;;;;26.85;12.98;;;;;;;;;;4990603;28;20033;-69
2021/07/20 04:53:45;;;;;;;30.02;14.82;;;;;;;;;;4988442;28;20019;-69
2021/07/20 04:56:11;;;;;;;27.42;12.82;;;;;;;;;;4990048;28;20101;-68
2021/07/20 04:58:38;;;;;;;21.83;12.32;;;;;;;;;;4992719;28;20033;-69
2021/07/20 05:01:05;;;;;;;23.05;11.60;;;;;;;;;;4994581;28;20034;-69
2021/07/20 05:03:33;;;;;;;26.27;12.43;;;;;;;;;;4992911;28;20034;-68
2021/07/20 05:05:59;;;;;;;28.75;12.52;;;;;;;;;;4989647;28;20528;-68
2021/07/20 05:08:29;;;;;;;25.98;12.10;;;;;;;;;;4993205;28;20022;-69
2021/07/20 05:10:56;;;;;;;24.63;12.60;;;;;;;;;;4983933;28;20801;-68
2021/07/20 05:13:22;;;;;;;25.25;11.75;;;;;;;;;;4991781;28;20033;-69
2021/07/20 05:15:58;;;;;;;22.70;11.63;;;;;;;;;;4996176;28;20105;-69
2021/07/20 05:18:24;;;;;;;24.63;11.48;;;;;;;;;;4988873;28;20482;-69
2021/07/20 05:20:51;;;;;;;22.73;11.73;;;;;;;;;;5001088;23;20043;-69
2021/07/20 05:23:18;;;;;;;28.20;11.75;;;;;;;;;;4965224;28;20431;-68
2021/07/20 05:25:45;;;;;;;26.73;12.23;;;;;;;;;;4967077;28;20114;-70
2021/07/20 05:28:12;;;;;;;21.42;11.25;;;;;;;;;;4993216;28;20468;-69
2021/07/20 05:30:39;;;;;;;20.98;11.00;;;;;;;;;;4978563;28;20054;-69
2021/07/20 05:33:05;;;;;;;18.58;11.02;;;;;;;;;;4990522;28;20450;-69
2021/07/20 05:35:31;;;;;;;28.50;10.73;;;;;;;;;;4979897;28;20030;-70
2021/07/20 05:37:57;;;;;;;18.27;10.15;;;;;;;;;;4975629;28;20195;-69
2021/07/20 05:40:23;;;;;;;20.42;10.48;;;;;;;;;;4996218;28;20027;-69
2021/07/20 05:42:49;;;;;;;23.42;9.20;;;;;;;;;;4988252;28;20023;-70
2021/07/20 05:45:15;;;;;;;20.75;10.02;;;;;;;;;;4973920;28;20069;-70
2021/07/20 05:47:46;;;;;;;20.83;8.95;;;;;;;;;;4973346;28;20026;-70
2021/07/20 05:50:12;;;;;;;18.00;9.20;;;;;;;;;;4969569;28;20023;-70
2021/07/20 05:52:41;;;;;;;15.48;9.18;;;;;;;;;;4973891;28;20034;-70
2021/07/20 05:55:08;;;;;;;16.17;9.05;;;;;;;;;;4985694;28;20033;-70
2021/07/20 05:57:35;;;;;;;18.80;8.85;;;;;;;;;;4973720;28;20030;-70
2021/07/20 06:00:01;;;;;;;15.55;9.07;;;;;;;;;;4969788;28;20027;-70
2021/07/20 06:02:27;;;;;;;19.10;9.43;;;;;;;;;;4979672;28;20030;-70
2021/07/20 06:04:54;;;;;;;17.98;8.38;;;;;;;;;;4987862;28;20046;-70
2021/07/20 06:07:20;;;;;;;14.77;8.80;;;;;;;;;;4993602;28;20031;-70
2021/07/20 06:09:47;;;;;;;14.40;8.82;;;;;;;;;;4982730;28;20383;-68
2021/07/20 06:12:14;;;;;;;63.03;22.65;;;;;;;;;;4977801;28;20033;-68
2021/07/20 06:14:41;;;;;;;38.30;13.27;;;;;;;;;;5000685;28;20364;-68
2021/07/20 06:17:07;;;;;;;13.55;8.82;;;;;;;;;;4973126;28;20034;-68
2021/07/20 06:19:33;;;;;;;13.52;7.70;;;;;;;;;;4989656;28;20027;-68
2021/07/20 06:22:01;;;;;;;9.82;6.65;;;;;;;;;;4980916;28;20424;-68
2021/07/20 06:24:28;;;;;;;16.60;8.98;;;;;;;;;;4978388;28;20021;-67
2021/07/20 06:26:54;;;;;;;12.10;7.20;;;;;;;;;;4974039;28;20097;-68
2021/07/20 06:29:22;;;;;;;16.50;8.82;;;;;;;;;;4988278;28;20376;-68
2021/07/20 06:31:48;;;;;;;14.57;7.88;;;;;;;;;;4975037;28;20027;-68
2021/07/20 06:34:14;;;;;;;12.13;7.10;;;;;;;;;;4982992;28;20030;-68
2021/07/20 06:36:42;;;;;;;11.15;6.97;;;;;;;;;;4972850;28;20102;-68
2021/07/20 06:39:08;;;;;;;9.45;6.03;;;;;;;;;;4983729;28;20497;-68
2021/07/20 06:41:35;;;;;;;11.48;6.50;;;;;;;;;;4972466;28;20027;-68
2021/07/20 06:44:02;;;;;;;11.50;7.15;;;;;;;;;;4971581;28;20050;-68
2021/07/20 06:46:29;;;;;;;12.02;6.80;;;;;;;;;;4978621;28;20097;-68
2021/07/20 06:48:55;;;;;;;9.20;6.45;;;;;;;;;;4980158;28;20029;-68
2021/07/20 06:51:21;;;;;;;12.75;6.45;;;;;;;;;;4972944;28;20018;-68
2021/07/20 06:53:47;;;;;;;21.77;7.40;;;;;;;;;;4987204;28;20027;-68
2021/07/20 06:56:19;;;;;;;13.40;6.22;;;;;;;;;;4991148;28;20079;-68
2021/07/20 06:58:45;;;;;;;10.68;6.25;;;;;;;;;;4972555;28;20435;-68
2021/07/20 07:01:14;;;;;;;12.30;6.20;;;;;;;;;;4971627;28;20033;-68
2021/07/20 07:03:58;;;;;;;9.60;5.60;;;;;;;;;;4972473;28;20460;-68
2021/07/20 07:06:25;;;;;;;10.25;7.38;;;;;;;;;;4972216;28;20022;-68
2021/07/20 07:08:52;;;;;;;10.80;6.40;;;;;;;;;;4972078;28;20576;-68
2021/07/20 07:11:18;;;;;;;10.02;6.10;;;;;;;;;;4971969;28;20102;-68
2021/07/20 07:13:44;;;;;;;10.68;6.20;;;;;;;;;;4987106;28;20372;-68
2021/07/20 07:16:11;;;;;;;7.88;4.72;;;;;;;;;;4972353;28;20074;-68
2021/07/20 07:18:37;;;;;;;9.82;6.03;;;;;;;;;;4971755;28;20018;-68
2021/07/20 07:21:04;;;;;;;9.65;5.47;;;;;;;;;;4971716;28;20156;-68
2021/07/20 07:23:32;;;;;;;10.75;6.63;;;;;;;;;;4969328;28;20019;-68
2021/07/20 07:26:00;;;;;;;8.60;6.15;;;;;;;;;;4993992;28;20425;-68
2021/07/20 07:28:26;;;;;;;8.40;5.28;;;;;;;;;;4971886;28;20019;-68
2021/07/20 07:30:53;;;;;;;14.02;5.72;;;;;;;;;;4979775;28;20039;-68
2021/07/20 07:33:19;;;;;;;9.48;5.50;;;;;;;;;;4971645;28;20034;-68
2021/07/20 07:35:46;;;;;;;8.18;4.55;;;;;;;;;;4986465;28;20025;-68
2021/07/20 07:38:13;;;;;;;9.77;5.38;;;;;;;;;;4971848;28;20320;-68
2021/07/20 07:40:40;;;;;;;7.20;5.05;;;;;;;;;;4970939;28;20522;-68
2021/07/20 07:43:06;;;;;;;8.70;5.68;;;;;;;;;;4971780;28;20018;-68
2021/07/20 07:45:33;;;;;;;9.90;5.45;;;;;;;;;;4971474;28;20019;-68
2021/07/20 07:47:59;;;;;;;10.50;5.30;;;;;;;;;;4987724;28;20043;-68
2021/07/20 07:50:25;;;;;;;10.60;5.50;;;;;;;;;;4965624;28;20031;-68
2021/07/20 07:52:52;;;;;;;8.65;5.47;;;;;;;;;;4993369;28;20019;-67
2021/07/20 07:55:22;;;;;;;7.75;5.28;;;;;;;;;;4988028;28;20420;-68
2021/07/20 07:57:49;;;;;;;7.03;4.95;;;;;;;;;;4977159;28;20464;-68
2021/07/20 08:00:15;;;;;;;9.70;5.50;;;;;;;;;;4991442;28;20408;-68
2021/07/20 08:02:43;;;;;;;8.55;5.00;;;;;;;;;;4970048;28;20020;-68
2021/07/20 08:05:10;;;;;;;7.88;5.65;;;;;;;;;;4983762;28;20386;-68
2021/07/20 08:07:37;;;;;;;8.95;5.28;;;;;;;;;;4969103;28;20037;-68
2021/07/20 08:10:04;;;;;;;7.68;4.72;;;;;;;;;;4983358;28;20081;-68
2021/07/20 08:12:30;;;;;;;8.73;5.97;;;;;;;;;;4963846;28;20035;-68
2021/07/20 08:14:56;;;;;;;6.75;4.70;;;;;;;;;;4975473;28;20035;-68
2021/07/20 08:17:24;;;;;;;6.88;5.03;;;;;;;;;;4971219;28;20027;-68
2021/07/20 08:19:50;;;;;;;7.82;4.88;;;;;;;;;;4968322;28;20045;-68
2021/07/20 08:22:18;;;;;;;8.98;5.28;;;;;;;;;;4964345;28;20189;-68
2021/07/20 08:24:58;;;;;;;7.43;5.40;;;;;;;;;;4964625;28;20026;-68
2021/07/20 08:27:27;;;;;;;7.35;4.93;;;;;;;;;;4969882;28;20019;-68
2021/07/20 08:29:55;;;;;;;7.88;4.45;;;;;;;;;;4965436;28;20400;-68
2021/07/20 08:32:22;;;;;;;9.20;4.47;;;;;;;;;;4963475;28;20088;-68
2021/07/20 08:34:50;;;;;;;9.45;4.97;;;;;;;;;;4964650;28;20126;-68
2021/07/20 08:37:18;;;;;;;6.75;4.55;;;;;;;;;;4960421;28;20034;-68
2021/07/20 08:39:45;;;;;;;8.45;4.80;;;;;;;;;;4970179;28;20030;-68
2021/07/20 08:42:21;;;;;;;7.45;5.28;;;;;;;;;;4964276;28;20480;-68
2021/07/20 08:44:52;;;;;;;5.78;4.47;;;;;;;;;;4964449;28;20030;-69
2021/07/20 08:47:42;;;;;;;6.63;4.43;;;;;;;;;;4970625;28;20077;-68
2021/07/20 08:50:28;;;;;;;8.00;4.47;;;;;;;;;;4988951;28;20030;-68
2021/07/20 08:53:04;;;;;;;6.97;4.60;;;;;;;;;;4967123;28;20054;-68
2021/07/20 08:55:30;;;;;;;8.63;4.45;;;;;;;;;;4969571;28;20104;-68
2021/07/20 08:57:56;;;;;;;8.90;4.60;;;;;;;;;;4968764;28;20031;-68
2021/07/20 09:00:25;;;;;;;8.68;5.28;;;;;;;;;;4974333;28;20094;-67
2021/07/20 09:03:20;;;;;;;9.30;5.32;;;;;;;;;;4985154;28;20473;-67
2021/07/20 09:05:51;;;;;;;8.50;4.70;;;;;;;;;;4972537;28;20042;-66
2021/07/20 09:08:19;;;;;;;7.57;4.53;;;;;;;;;;4973910;28;20077;-66
2021/07/20 09:10:47;;;;;;;5.97;4.38;;;;;;;;;;4970489;28;20034;-68
2021/07/20 09:13:16;;;;;;;7.13;4.47;;;;;;;;;;4974113;28;20027;-67
2021/07/20 09:15:45;;;;;;;6.63;4.55;;;;;;;;;;4974185;28;20035;-67
2021/07/20 09:18:18;;;;;;;7.35;4.78;;;;;;;;;;4988511;28;20116;-67
2021/07/20 09:20:46;;;;;;;8.27;5.40;;;;;;;;;;4991370;28;20043;-68
2021/07/20 09:23:15;;;;;;;7.45;5.53;;;;;;;;;;4974063;28;20089;-67
2021/07/20 09:26:08;;;;;;;6.82;4.90;;;;;;;;;;4973257;28;20023;-67
2021/07/20 09:28:43;;;;;;;8.77;5.68;;;;;;;;;;4973394;28;20173;-68
2021/07/20 09:31:18;;;;;;;8.38;5.03;;;;;;;;;;4968806;28;20046;-67
2021/07/20 09:33:55;;;;;;;8.43;5.75;;;;;;;;;;4970052;28;20015;-67
2021/07/20 09:36:24;;;;;;;10.82;5.18;;;;;;;;;;4966447;28;20074;-68
2021/07/20 09:38:58;;;;;;;7.75;5.15;;;;;;;;;;4970728;28;20035;-67
2021/07/20 09:41:33;;;;;;;7.65;5.22;;;;;;;;;;4966013;28;20109;-67
2021/07/20 09:44:11;;;;;;;9.25;6.07;;;;;;;;;;4964492;28;20034;-67
2021/07/20 09:46:37;;;;;;;8.77;5.25;;;;;;;;;;4954217;28;20031;-67
2021/07/20 09:49:06;;;;;;;8.68;5.60;;;;;;;;;;4976869;28;20074;-67
2021/07/20 09:51:47;;;;;;;13.60;6.13;;;;;;;;;;4957530;28;20031;-67
2021/07/20 09:54:23;;;;;;;10.85;6.68;;;;;;;;;;4965707;28;20081;-67
2021/07/20 09:56:55;;;;;;;7.97;5.50;;;;;;;;;;4971229;28;20042;-67
2021/07/20 09:59:40;;;;;;;8.13;5.32;;;;;;;;;;4970225;28;20060;-67
2021/07/20 10:02:10;;;;;;;6.63;5.30;;;;;;;;;;4983334;28;20034;-67
2021/07/20 10:04:43;;;;;;;10.55;6.35;;;;;;;;;;4971984;28;20026;-67
2021/07/20 10:07:14;;;;;;;12.68;6.25;;;;;;;;;;4975186;28;20451;-67
2021/07/20 10:10:03;;;;;;;9.60;5.65;;;;;;;;;;4979229;28;20077;-68
2021/07/20 10:12:29;;;;;;;12.25;6.75;;;;;;;;;;4968447;28;20045;-67
2021/07/20 10:15:09;;;;;;;10.80;6.45;;;;;;;;;;4967352;28;20242;-67
2021/07/20 10:17:38;;;;;;;8.90;5.80;;;;;;;;;;4968398;28;20092;-67
2021/07/20 10:20:14;;;;;;;9.48;6.10;;;;;;;;;;4977264;28;20042;-67
2021/07/20 10:22:49;;;;;;;8.40;6.18;;;;;;;;;;4968095;28;20372;-67
2021/07/20 10:25:23;;;;;;;8.57;6.25;;;;;;;;;;4963982;28;20158;-67
2021/07/20 10:28:00;;;;;;;9.63;6.28;;;;;;;;;;4965358;28;20090;-67
2021/07/20 10:30:28;;;;;;;13.80;7.32;;;;;;;;;;4981811;28;20473;-67
2021/07/20 10:33:12;;;;;;;14.82;7.70;;;;;;;;;;4984753;28;20523;-68
2021/07/20 10:35:41;;;;;;;10.07;6.10;;;;;;;;;;4965734;28;20093;-67
2021/07/20 10:38:08;;;;;;;11.05;6.72;;;;;;;;;;4976793;28;20125;-68
2021/07/20 10:40:35;;;;;;;8.82;5.10;;;;;;;;;;4971547;28;20030;-66
2021/07/20 10:43:05;;;;;;;10.68;6.60;;;;;;;;;;4972089;28;20020;-67
2021/07/20 10:45:33;;;;;;;8.77;5.65;;;;;;;;;;4972685;28;20098;-67
2021/07/20 10:48:17;;;;;;;9.70;5.80;;;;;;;;;;4978119;28;20034;-67
2021/07/20 10:51:03;;;;;;;9.25;5.75;;;;;;;;;;4980445;28;20022;-67
2021/07/20 10:53:41;;;;;;;9.52;5.00;;;;;;;;;;4971832;28;20054;-67
2021/07/20 10:56:26;;;;;;;9.90;5.18;;;;;;;;;;4976128;28;20023;-67
2021/07/20 10:58:57;;;;;;;8.50;5.20;;;;;;;;;;4985213;28;20035;-67
2021/07/20 11:01:26;;;;;;;11.35;5.55;;;;;;;;;;4967562;28;20011;-67
2021/07/20 11:04:05;;;;;;;10.52;5.70;;;;;;;;;;4972181;28;20492;-67
2021/07/20 11:06:31;;;;;;;9.57;5.10;;;;;;;;;;4972384;28;20046;-67
2021/07/20 11:08:59;;;;;;;9.38;5.75;;;;;;;;;;4972771;28;20324;-67
2021/07/20 11:11:28;;;;;;;8.77;5.45;;;;;;;;;;4974247;28;20114;-67
2021/07/20 11:13:55;;;;;;;8.57;5.45;;;;;;;;;;4972066;28;20029;-67
2021/07/20 11:16:21;;;;;;;9.90;5.57;;;;;;;;;;4971958;28;20019;-67
2021/07/20 11:18:49;;;;;;;13.05;5.65;;;;;;;;;;4972077;28;20014;-67
2021/07/20 11:21:16;;;;;;;9.82;5.65;;;;;;;;;;4995480;23;20034;-71
2021/07/20 11:23:44;;;;;;;8.25;5.22;;;;;;;;;;4976103;28;20118;-70
2021/07/20 11:26:10;;;;;;;9.45;5.60;;;;;;;;;;4963350;28;20077;-69
2021/07/20 11:28:37;;;;;;;10.57;6.15;;;;;;;;;;4970881;28;20114;-68
2021/07/20 11:31:07;;;;;;;8.52;5.57;;;;;;;;;;4965591;28;20026;-68
2021/07/20 11:33:37;;;;;;;11.20;5.18;;;;;;;;;;4972143;28;20026;-68
2021/07/20 11:36:05;;;;;;;13.90;6.82;;;;;;;;;;4967631;28;20408;-70
2021/07/20 11:38:33;;;;;;;10.55;6.07;;;;;;;;;;4965570;28;20101;-70
2021/07/20 11:41:00;;;;;;;9.48;6.15;;;;;;;;;;4961913;28;20491;-70
2021/07/20 11:43:34;;;;;;;10.65;5.60;;;;;;;;;;4960194;28;20030;-70
2021/07/20 11:46:08;;;;;;;11.10;6.45;;;;;;;;;;4964339;28;20038;-72
2021/07/20 11:48:54;;;;;;;9.27;6.35;;;;;;;;;;4963297;28;20027;-70
2021/07/20 11:51:25;;;;;;;8.57;5.93;;;;;;;;;;4953317;28;20054;-69
2021/07/20 11:54:06;;;;;;;8.68;6.07;;;;;;;;;;4952239;28;20023;-70
2021/07/20 11:56:33;;;;;;;12.68;5.90;;;;;;;;;;4950144;28;20059;-70
2021/07/20 11:59:17;;;;;;;8.82;5.82;;;;;;;;;;4944286;28;20378;-70
2021/07/20 12:01:58;;;;;;;8.23;5.72;;;;;;;;;;4981163;28;20070;-69
2021/07/20 12:04:44;;;;;;;11.85;6.65;;;;;;;;;;4951930;28;20094;-68
2021/07/20 12:07:22;;;;;;;11.00;6.40;;;;;;;;;;4944945;28;20055;-69
2021/07/20 12:10:03;;;;;;;9.82;6.30;;;;;;;;;;4945952;28;20046;-70
2021/07/20 12:12:46;;;;;;;12.95;7.60;;;;;;;;;;4952017;28;20031;-70
2021/07/20 12:15:13;;;;;;;12.68;7.18;;;;;;;;;;4951393;28;20035;-70
2021/07/20 12:17:45;;;;;;;11.68;6.95;;;;;;;;;;4951981;28;20484;-70
2021/07/20 12:20:13;;;;;;;11.85;6.90;;;;;;;;;;4982088;28;20488;-71
2021/07/20 12:22:40;;;;;;;10.32;6.90;;;;;;;;;;4951979;28;20031;-71
2021/07/20 12:25:07;;;;;;;12.98;6.57;;;;;;;;;;4947414;28;20098;-70
2021/07/20 12:27:34;;;;;;;11.15;6.47;;;;;;;;;;4948635;28;20019;-70
2021/07/20 12:30:00;;;;;;;12.57;6.68;;;;;;;;;;4951404;28;20039;-70
2021/07/20 12:32:30;;;;;;;8.27;5.53;;;;;;;;;;4951490;28;20055;-69
2021/07/20 12:34:58;;;;;;;12.00;6.57;;;;;;;;;;4949944;28;20027;-71
2021/07/20 12:37:24;;;;;;;12.15;7.03;;;;;;;;;;4948036;28;20035;-70
2021/07/20 12:39:51;;;;;;;16.20;9.27;;;;;;;;;;4941004;28;20070;-69
2021/07/20 12:42:17;;;;;;;13.95;7.28;;;;;;;;;;4953689;28;20023;-70
2021/07/20 12:44:43;;;;;;;11.35;6.70;;;;;;;;;;4946725;28;20022;-68
2021/07/20 12:47:16;;;;;;;9.20;6.82;;;;;;;;;;4982738;28;20039;-69
2021/07/20 12:49:44;;;;;;;13.43;6.30;;;;;;;;;;4952603;28;20059;-69
2021/07/20 12:52:10;;;;;;;13.15;7.30;;;;;;;;;;4954487;28;20488;-69
2021/07/20 12:54:41;;;;;;;10.77;7.28;;;;;;;;;;4970360;28;20051;-68
2021/07/20 12:57:07;;;;;;;11.38;7.78;;;;;;;;;;4954233;28;20499;-69
2021/07/20 12:59:34;;;;;;;12.38;7.22;;;;;;;;;;4957230;28;20469;-69
2021/07/20 13:02:00;;;;;;;10.35;6.95;;;;;;;;;;4955912;28;20433;-72
2021/07/20 13:04:27;;;;;;;11.43;7.70;;;;;;;;;;4955527;28;20034;-71
2021/07/20 13:06:54;;;;;;;12.00;7.60;;;;;;;;;;4953937;28;20485;-71
2021/07/20 13:09:21;;;;;;;13.68;7.07;;;;;;;;;;4955414;28;20062;-68
2021/07/20 13:11:51;;;;;;;12.68;7.13;;;;;;;;;;4985829;28;20027;-71
2021/07/20 13:14:17;;;;;;;10.57;6.80;;;;;;;;;;4955062;28;20402;-72
2021/07/20 13:16:43;;;;;;;10.15;7.40;;;;;;;;;;4954871;28;20035;-72
2021/07/20 13:19:09;;;;;;;11.60;7.53;;;;;;;;;;4955322;28;20078;-72
2021/07/20 13:21:39;;;;;;;12.98;7.43;;;;;;;;;;4955573;28;20031;-72
2021/07/20 13:24:05;;;;;;;12.10;7.68;;;;;;;;;;4960681;28;20020;-72
2021/07/20 13:26:31;;;;;;;10.68;6.88;;;;;;;;;;4961636;28;20039;-71
2021/07/20 13:29:02;;;;;;;17.55;7.53;;;;;;;;;;4956263;28;20024;-72
2021/07/20 13:31:44;;;;;;;10.95;6.88;;;;;;;;;;4954799;28;20483;-72
2021/07/20 13:34:12;;;;;;;11.10;7.18;;;;;;;;;;4978020;28;20110;-72
2021/07/20 13:36:39;;;;;;;13.20;7.30;;;;;;;;;;4954731;28;20545;-71
2021/07/20 13:39:07;;;;;;;11.18;7.30;;;;;;;;;;4954419;28;20031;-72
2021/07/20 13:41:33;;;;;;;11.45;6.95;;;;;;;;;;4954849;28;20055;-72
2021/07/20 13:44:00;;;;;;;10.45;7.10;;;;;;;;;;4953594;28;20019;-72
2021/07/20 13:46:27;;;;;;;10.90;7.20;;;;;;;;;;4976247;28;20030;-71
2021/07/20 13:48:57;;;;;;;14.73;7.50;;;;;;;;;;4948676;28;20405;-72
2021/07/20 13:51:26;;;;;;;11.43;6.63;;;;;;;;;;4975416;28;20397;-71
2021/07/20 13:53:55;;;;;;;13.52;7.13;;;;;;;;;;4955112;28;20059;-71
2021/07/20 13:56:27;;;;;;;14.50;6.97;;;;;;;;;;4953275;28;20023;-72
2021/07/20 13:58:54;;;;;;;10.27;6.22;;;;;;;;;;4954163;28;20047;-71
2021/07/20 14:01:20;;;;;;;10.82;7.47;;;;;;;;;;4953761;28;20034;-70
2021/07/20 14:03:46;;;;;;;10.65;6.97;;;;;;;;;;4957008;28;20019;-71
2021/07/20 14:06:12;;;;;;;10.98;7.22;;;;;;;;;;4953787;28;20098;-71
2021/07/20 14:08:39;;;;;;;11.10;6.90;;;;;;;;;;4954630;28;20031;-72
2021/07/20 14:11:05;;;;;;;12.30;7.20;;;;;;;;;;4953668;28;20027;-72
2021/07/20 14:13:31;;;;;;;13.77;8.02;;;;;;;;;;4954140;28;20078;-72
2021/07/20 14:15:58;;;;;;;10.35;7.32;;;;;;;;;;4954533;28;20042;-72
2021/07/20 14:18:25;;;;;;;12.50;7.50;;;;;;;;;;4953553;28;20023;-71
2021/07/20 14:20:51;;;;;;;10.88;6.22;;;;;;;;;;4953544;28;20036;-72
2021/07/20 14:23:17;;;;;;;10.35;7.15;;;;;;;;;;4950188;28;20028;-72
2021/07/20 14:25:48;;;;;;;11.15;7.07;;;;;;;;;;4950591;28;20066;-73
2021/07/20 14:28:15;;;;;;;10.88;7.75;;;;;;;;;;4953324;28;20016;-72
2021/07/20 14:30:55;;;;;;;11.75;6.93;;;;;;;;;;4953884;28;20507;-71
2021/07/20 14:33:22;;;;;;;10.95;7.03;;;;;;;;;;4953583;28;20100;-72
2021/07/20 14:35:49;;;;;;;11.05;7.20;;;;;;;;;;4950824;28;20432;-72
2021/07/20 14:38:34;;;;;;;11.93;8.23;;;;;;;;;;4954117;28;20027;-73
2021/07/20 14:41:13;;;;;;;12.73;7.90;;;;;;;;;;4950982;28;20037;-72
2021/07/20 14:43:40;;;;;;;10.05;6.80;;;;;;;;;;4949599;28;20505;-71